createdAt,value
2022-10-14T00:03:28.225Z,12.30
2022-10-14T00:07:30.320Z,12.40
2022-10-14T00:11:34.717Z,12.50
2022-10-14T00:15:40.620Z,12.50
2022-10-14T00:19:42.358Z,12.50
2022-10-14T00:23:45.172Z,12.50
2022-10-14T00:27:46.874Z,12.60
2022-10-14T00:31:48.799Z,12.50
2022-10-14T00:35:57.601Z,12.50
2022-10-14T00:39:59.274Z,12.50
2022-10-14T00:44:05.491Z,12.50
2022-10-14T00:48:08.638Z,12.50
2022-10-14T00:52:22.096Z,12.50
2022-10-14T00:56:28.609Z,12.50
2022-10-14T01:00:30.412Z,12.50
2022-10-14T01:04:32.857Z,12.50
2022-10-14T01:08:54.743Z,12.50
2022-10-14T01:13:31.154Z,12.50
2022-10-14T01:17:32.777Z,12.50
2022-10-14T01:21:37.176Z,12.40
2022-10-14T01:26:22.029Z,12.40
2022-10-14T01:30:31.854Z,12.50
2022-10-14T01:34:55.570Z,12.50
2022-10-14T01:39:02.967Z,12.50
2022-10-14T01:43:05.714Z,12.40
2022-10-14T01:47:08.959Z,12.50
2022-10-14T01:51:16.569Z,12.40
2022-10-14T01:55:22.181Z,12.50
2022-10-14T01:59:24.668Z,12.40
2022-10-14T02:03:26.348Z,12.40
2022-10-14T02:07:36.761Z,12.40
2022-10-14T02:11:56.498Z,12.40
2022-10-14T02:16:38.506Z,12.50
2022-10-14T02:21:25.285Z,12.50
2022-10-14T02:25:36.025Z,12.40
2022-10-14T02:29:40.316Z,12.50
2022-10-14T02:33:45.095Z,12.50
2022-10-14T02:37:48.239Z,12.50
2022-10-14T02:41:49.942Z,12.40
2022-10-14T02:46:01.586Z,12.40
2022-10-14T02:50:04.193Z,12.40
2022-10-14T02:54:05.864Z,12.40
2022-10-14T02:58:07.555Z,12.40
2022-10-14T03:02:09.484Z,12.30
2022-10-14T03:06:11.196Z,12.30
2022-10-14T03:10:12.971Z,12.30
2022-10-14T03:14:14.691Z,12.30
2022-10-14T03:18:16.538Z,12.30
2022-10-14T03:22:18.401Z,12.30
2022-10-14T03:26:20.308Z,12.30
2022-10-14T03:30:22.008Z,12.30
2022-10-14T03:34:23.745Z,12.30
2022-10-14T03:38:25.479Z,12.30
2022-10-14T03:42:27.165Z,12.30
2022-10-14T03:46:28.896Z,12.30
2022-10-14T03:50:30.742Z,12.30
2022-10-14T03:54:32.389Z,12.30
2022-10-14T03:58:34.048Z,12.30
2022-10-14T04:02:35.833Z,12.40
2022-10-14T04:06:37.873Z,12.40
2022-10-14T04:10:39.530Z,12.30
2022-10-14T04:14:41.243Z,12.40
2022-10-14T04:18:42.952Z,12.40
2022-10-14T04:22:44.790Z,12.30
2022-10-14T04:26:46.471Z,12.30
2022-10-14T04:30:48.145Z,12.40
2022-10-14T04:34:49.885Z,12.40
2022-10-14T04:38:51.664Z,12.40
2022-10-14T04:42:57.351Z,12.40
2022-10-14T04:46:59.044Z,12.30
2022-10-14T04:51:00.708Z,12.40
2022-10-14T04:55:03.502Z,12.40
2022-10-14T04:59:05.821Z,12.40
2022-10-14T05:03:07.519Z,12.40
2022-10-14T05:07:09.243Z,12.40
2022-10-14T05:11:10.924Z,12.40
2022-10-14T05:15:12.774Z,12.40
2022-10-14T05:19:14.529Z,12.40
2022-10-14T05:23:16.272Z,12.50
2022-10-14T05:27:18.302Z,12.50
2022-10-14T05:31:20.036Z,12.40
2022-10-14T05:35:39.920Z,12.40
2022-10-14T05:39:43.356Z,12.40
2022-10-14T05:43:45.043Z,12.40
2022-10-14T05:47:46.969Z,12.50
2022-10-14T05:51:48.664Z,12.40
2022-10-14T05:55:50.293Z,12.40
2022-10-14T05:59:51.993Z,12.40
2022-10-14T06:03:53.665Z,12.40
2022-10-14T06:07:55.343Z,12.50
2022-10-14T06:11:56.992Z,12.50
2022-10-14T06:16:06.512Z,12.50
2022-10-14T06:20:08.684Z,12.50
2022-10-14T06:24:11.024Z,12.50
2022-10-14T06:28:12.801Z,12.40
2022-10-14T06:32:14.479Z,12.50
2022-10-14T06:36:16.162Z,12.50
2022-10-14T06:40:17.916Z,12.70
2022-10-14T06:44:20.664Z,12.70
2022-10-14T06:48:22.800Z,12.70
2022-10-14T06:52:24.997Z,12.70
2022-10-14T06:56:26.892Z,12.70
2022-10-14T07:00:28.611Z,12.70
2022-10-14T07:04:30.354Z,12.70
2022-10-14T07:08:32.478Z,12.80
2022-10-14T07:12:34.400Z,12.80
2022-10-14T07:16:36.147Z,12.90
2022-10-14T07:20:38.001Z,12.80
2022-10-14T07:24:39.704Z,12.90
2022-10-14T07:28:41.544Z,12.90
2022-10-14T07:32:43.260Z,12.90
2022-10-14T07:36:44.973Z,12.90
2022-10-14T07:40:59.529Z,13.00
2022-10-14T07:45:01.390Z,13.00
2022-10-14T07:49:12.903Z,13.10
2022-10-14T07:53:14.803Z,13.10
2022-10-14T07:57:16.695Z,13.20
2022-10-14T08:01:18.856Z,13.20
2022-10-14T08:09:42.435Z,13.20
2022-10-14T08:13:46.256Z,13.20
2022-10-14T08:17:48.224Z,13.40
2022-10-14T08:21:49.896Z,13.30
2022-10-14T08:25:51.691Z,13.30
2022-10-14T08:29:54.424Z,13.40
2022-10-14T08:33:56.201Z,13.40
2022-10-14T08:37:59.575Z,13.50
2022-10-14T08:42:26.418Z,13.50
2022-10-14T08:46:42.564Z,13.60
2022-10-14T08:51:15.788Z,13.60
2022-10-14T08:56:06.718Z,13.60
2022-10-14T09:00:11.117Z,13.70
2022-10-14T09:04:14.957Z,13.80
2022-10-14T09:08:17.766Z,13.80
2022-10-14T09:12:26.861Z,13.90
2022-10-14T09:16:33.025Z,14.00
2022-10-14T09:20:34.802Z,14.00
2022-10-14T09:24:37.368Z,14.00
2022-10-14T09:28:41.300Z,13.90
2022-10-14T09:32:52.806Z,14.10
2022-10-14T09:36:54.668Z,14.10
2022-10-14T09:41:00.061Z,14.10
2022-10-14T09:45:13.915Z,14.10
2022-10-14T09:49:40.284Z,14.20
2022-10-14T09:53:49.074Z,14.20
2022-10-14T09:58:14.085Z,14.20
2022-10-14T10:02:24.133Z,14.30
2022-10-14T10:06:27.053Z,14.40
2022-10-14T10:10:31.761Z,14.50
2022-10-14T10:14:34.124Z,14.50
2022-10-14T10:18:35.816Z,14.50
2022-10-14T10:22:38.818Z,14.60
2022-10-14T10:26:40.593Z,14.50
2022-10-14T10:30:59.618Z,14.50
2022-10-14T10:35:29.854Z,14.50
2022-10-14T10:39:43.560Z,14.50
2022-10-14T10:44:28.371Z,14.50
2022-10-14T10:48:54.200Z,14.50
2022-10-14T10:53:03.934Z,14.50
2022-10-14T10:57:45.856Z,14.60
2022-10-14T11:01:56.751Z,14.70
2022-10-14T11:06:10.882Z,14.70
2022-10-14T11:10:37.160Z,14.80
2022-10-14T11:14:54.192Z,14.90
2022-10-14T11:19:21.216Z,14.90
2022-10-14T11:23:41.475Z,14.90
2022-10-14T11:28:04.390Z,14.90
2022-10-14T11:32:24.765Z,14.90
2022-10-14T11:36:40.171Z,14.80
2022-10-14T11:41:18.946Z,14.80
2022-10-14T11:45:35.795Z,14.70
2022-10-14T11:49:45.924Z,14.80
2022-10-14T11:53:55.648Z,14.80
2022-10-14T11:58:01.064Z,14.70
2022-10-14T12:02:30.600Z,14.70
2022-10-14T12:06:46.709Z,14.70
2022-10-14T12:10:59.129Z,14.80
2022-10-14T12:15:06.845Z,14.80
2022-10-14T12:19:11.713Z,14.90
2022-10-14T12:23:36.758Z,15.00
2022-10-14T12:27:39.125Z,14.90
2022-10-14T12:31:40.844Z,14.90
2022-10-14T12:35:50.709Z,15.00
2022-10-14T12:40:13.386Z,15.00
2022-10-14T12:44:19.091Z,15.00
2022-10-14T12:48:23.462Z,15.10
2022-10-14T12:52:55.936Z,15.10
2022-10-14T12:57:04.641Z,14.90
2022-10-14T13:01:18.641Z,15.00
2022-10-14T13:05:42.716Z,15.00
2022-10-14T13:09:45.300Z,15.00
2022-10-14T13:13:49.157Z,15.00
2022-10-14T13:17:50.809Z,15.00
2022-10-14T13:21:53.274Z,15.10
2022-10-14T13:26:18.088Z,15.10
2022-10-14T13:30:23.625Z,15.20
2022-10-14T13:34:29.577Z,15.10
2022-10-14T13:38:33.855Z,15.00
2022-10-14T13:42:37.333Z,15.00
2022-10-14T13:46:42.792Z,15.00
2022-10-14T13:50:50.349Z,15.00
2022-10-14T13:55:14.001Z,14.90
2022-10-14T13:59:45.689Z,14.90
2022-10-14T14:03:51.713Z,14.80
2022-10-14T14:12:15.948Z,14.80
2022-10-14T14:16:21.602Z,14.80
2022-10-14T14:20:26.284Z,14.80
2022-10-14T14:24:29.403Z,14.70
2022-10-14T14:28:32.512Z,14.70
2022-10-14T14:32:36.385Z,14.70
2022-10-14T14:36:55.419Z,14.70
2022-10-14T14:41:21.188Z,14.70
2022-10-14T14:45:25.779Z,14.80
2022-10-14T14:49:31.670Z,14.80
2022-10-14T14:53:33.517Z,14.80
2022-10-14T14:57:35.354Z,14.90
2022-10-14T15:01:41.109Z,14.90
2022-10-14T15:05:54.741Z,14.90
2022-10-14T15:10:00.225Z,14.90
2022-10-14T15:14:02.942Z,14.90
2022-10-14T15:18:19.671Z,15.00
2022-10-14T15:22:28.616Z,14.90
2022-10-14T15:26:36.186Z,14.70
2022-10-14T15:30:40.925Z,14.70
2022-10-14T15:34:42.665Z,14.70
2022-10-14T15:38:44.326Z,14.70
2022-10-14T15:42:47.269Z,14.60
2022-10-14T15:47:09.427Z,14.60
2022-10-14T15:51:16.001Z,14.60
2022-10-14T15:55:20.987Z,14.60
2022-10-14T15:59:25.514Z,14.60
2022-10-14T16:03:27.244Z,14.70
2022-10-14T16:07:28.944Z,14.80
2022-10-14T16:11:31.175Z,14.70
2022-10-14T16:15:44.000Z,14.70
2022-10-14T16:19:45.719Z,14.70
2022-10-14T16:23:47.481Z,14.70
2022-10-14T16:27:50.176Z,14.60
2022-10-14T16:31:52.317Z,14.70
2022-10-14T16:35:57.195Z,14.60
2022-10-14T16:39:58.877Z,14.60
2022-10-14T16:44:00.531Z,14.50
2022-10-14T16:48:02.584Z,14.50
2022-10-14T16:52:04.532Z,14.40
2022-10-14T16:56:31.664Z,14.30
2022-10-14T17:00:33.369Z,14.30
2022-10-14T17:04:35.037Z,14.20
2022-10-14T17:08:37.093Z,14.20
2022-10-14T17:12:39.482Z,14.20
2022-10-14T17:16:42.200Z,14.20
2022-10-14T17:20:43.876Z,14.10
2022-10-14T17:24:45.843Z,14.00
2022-10-14T17:28:48.376Z,14.00
2022-10-14T17:32:50.133Z,13.90
2022-10-14T17:36:53.321Z,13.90
2022-10-14T17:41:02.540Z,13.80
2022-10-14T17:45:04.548Z,13.70
2022-10-14T17:49:09.822Z,13.70
2022-10-14T17:53:12.585Z,13.70
2022-10-14T17:57:14.246Z,13.60
2022-10-14T18:01:16.546Z,13.60
2022-10-14T18:05:18.271Z,13.50
2022-10-14T18:09:19.996Z,13.40
2022-10-14T18:13:21.667Z,13.40
2022-10-14T18:17:24.093Z,13.40
2022-10-14T18:21:27.373Z,13.40
2022-10-14T18:25:29.037Z,13.30
2022-10-14T18:29:30.923Z,13.30
2022-10-14T18:33:34.439Z,13.30
2022-10-14T18:37:36.150Z,13.40
2022-10-14T18:41:37.930Z,13.40
2022-10-14T18:45:39.600Z,13.30
2022-10-14T18:49:41.427Z,13.30
2022-10-14T18:53:45.080Z,13.30
2022-10-14T18:57:46.730Z,13.30
2022-10-14T19:01:52.874Z,13.30
2022-10-14T19:05:57.860Z,13.30
2022-10-14T19:09:59.525Z,13.20
2022-10-14T19:14:05.268Z,13.20
2022-10-14T19:18:07.096Z,13.20
2022-10-14T19:22:10.633Z,13.20
2022-10-14T19:30:21.748Z,13.30
2022-10-14T19:34:26.896Z,13.20
2022-10-14T19:38:29.247Z,13.20
2022-10-14T19:42:30.968Z,13.20
2022-10-14T19:46:32.679Z,13.20
2022-10-14T19:50:34.626Z,13.10
2022-10-14T19:54:36.347Z,13.10
2022-10-14T19:58:42.275Z,13.10
2022-10-14T20:02:46.639Z,13.00
2022-10-14T20:06:48.301Z,13.00
2022-10-14T20:10:50.078Z,12.90
2022-10-14T20:14:51.874Z,12.90
2022-10-14T20:18:54.030Z,12.90
2022-10-14T20:22:55.700Z,12.90
2022-10-14T20:26:57.491Z,12.90
2022-10-14T20:30:59.173Z,12.80
2022-10-14T20:35:00.939Z,12.80
2022-10-14T20:39:02.794Z,12.70
2022-10-14T20:43:04.533Z,12.70
2022-10-14T20:47:06.208Z,12.60
2022-10-14T20:51:11.225Z,12.60
2022-10-14T20:55:13.060Z,12.50
2022-10-14T20:59:14.848Z,12.50
2022-10-14T21:03:16.529Z,12.40
2022-10-14T21:07:20.689Z,12.40
2022-10-14T21:11:24.682Z,12.30
2022-10-14T21:15:29.053Z,12.30
2022-10-14T21:19:31.070Z,12.10
2022-10-14T21:23:34.299Z,12.10
2022-10-14T21:27:36.010Z,12.00
2022-10-14T21:31:38.419Z,12.00
2022-10-14T21:35:40.116Z,12.00
2022-10-14T21:39:41.839Z,12.00
2022-10-14T21:43:43.645Z,12.00
2022-10-14T21:47:45.403Z,12.00
2022-10-14T21:51:47.083Z,12.00
2022-10-14T21:55:52.566Z,11.90
2022-10-14T21:59:54.246Z,11.90
2022-10-14T22:04:04.524Z,11.90
2022-10-14T22:08:06.519Z,11.90
2022-10-14T22:12:08.272Z,11.90
2022-10-14T22:16:10.000Z,11.90
2022-10-14T22:20:11.868Z,11.80
2022-10-14T22:24:14.215Z,11.80
2022-10-14T22:28:15.963Z,11.80
2022-10-14T22:32:17.726Z,11.80
2022-10-14T22:36:25.122Z,11.80
2022-10-14T22:40:26.821Z,11.80
2022-10-14T22:44:28.468Z,11.80
2022-10-14T22:48:30.852Z,11.80
2022-10-14T22:52:32.539Z,11.80
2022-10-14T22:56:34.489Z,11.80
2022-10-14T23:00:36.209Z,11.80
2022-10-14T23:04:37.940Z,11.90
2022-10-14T23:08:40.493Z,11.90
2022-10-14T23:12:42.193Z,11.90
2022-10-14T23:16:43.938Z,11.90
2022-10-14T23:20:45.602Z,11.90
2022-10-14T23:24:47.375Z,11.90
2022-10-14T23:28:56.025Z,11.90
2022-10-14T23:32:57.753Z,12.00
2022-10-14T23:36:59.431Z,12.10
2022-10-14T23:41:02.858Z,12.10
2022-10-14T23:45:05.292Z,12.00
2022-10-14T23:49:14.267Z,12.00
2022-10-14T23:53:27.200Z,11.90
2022-10-14T23:57:28.864Z,11.90
